Aérodrome :
LOGIN :

S'inscrire | Disclaimer

   EN    FR    IT 

 










Légende :    VFR   VFR Marginal   IFR   IFR Intensif   IFR Très Intensif
Visi : 
Plafond : 
>= 8 km
>= 3000ft
5 à 8 km
1000 à 3000 ft
1500m à 5 km
500 à 1000 ft
800 à 1500m
200 à 500 ft
< 800m
< 200 ft
Symboles :   Orages  Brouillard  Fortes neiges  Fortes précipitations  Vent > 20 kt
SIGMETs :   Divers  Orages  Givrage  Turbulence  Onde Orograph.  Cendres Volcan.







- Altitude de l'aérodrome : 506 ft
- Code IATA : GOT


ESGG - Landvetter

DERNIER METAR :
  • 190320Z 19005KT 2500 -SN BR VV003 M00/M01 Q1018 R21/690195

METARs EXPIRÉS :
  • 190250Z 19005KT 2700 -SN BR VV004 M00/M01 Q1018 R21/690195
  • 190220Z 19005KT 1600 BR VV003 M00/M01 Q1018 R21/690195
  • 190150Z 19004KT 1200 R03/P1500N R21/P1500N -SN BR VV003 M00/M01 Q1019 R21/690195
  • 190120Z 20004KT 0900 R03/P1500N R21/P1500N FZFG VV003 M00/M01 Q1019 R21/690195
  • 190050Z 19005KT 1200 R03/P1500N R21/P1500N SG VV003 M00/M01 Q1019 R21/690195

TAF TAF ESGG
Valide du 19 à 00h jusqu'au 20 à 00h UTC


182330Z 1900/1924 19010KT 5000 -SN SCT003 BKN010
TEMPO 1900/1902 1400 SNRA BR OVC003
PROB40 1902/1908 0700 FZFG VV002
BECMG 1903/1905 VRB02KT
TEMPO 1908/1916 3000 RASN OVC006
BECMG 1916/1918 08010KT SCT010 BKN017
PROB40 1918/1924 1200 BR BKN004
Pas de NOTAMs connus pour ce terrain.



MET'MAP, la Météo Aéronautique d'un coup d'oeil ! - Copyright ORBIFLY Décembre 2007 - Disclaimer

ORBIFLY MET'MAP TEAM :

Programmation & Développement : Alexandra Zaïnal
Conception & Développement : Baudouin d'Aumeries
Co-Programmation & Développement : Marc-Olivier Méhu
Soutien technique & logistique : Manuel Goepfert

Contact : metmap@orbifly.com




SOURCES & CREDITS :

   NOAA